sensor_id;sensor_type;location;lat;lon;timestamp;P1;durP1;ratioP1;P2;durP2;ratioP2
6121;SDS011;3091;51.506;7.672;2023-05-10T00:01:40;28.00;;;26.30;;
6121;SDS011;3091;51.506;7.672;2023-05-10T00:04:06;27.70;;;26.00;;
6121;SDS011;3091;51.506;7.672;2023-05-10T00:06:32;27.20;;;25.50;;
6121;SDS011;3091;51.506;7.672;2023-05-10T00:08:58;27.97;;;26.00;;
6121;SDS011;3091;51.506;7.672;2023-05-10T00:11:24;25.77;;;24.17;;
6121;SDS011;3091;51.506;7.672;2023-05-10T00:13:50;25.90;;;24.30;;
6121;SDS011;3091;51.506;7.672;2023-05-10T00:16:16;25.73;;;24.03;;
6121;SDS011;3091;51.506;7.672;2023-05-10T00:18:42;26.60;;;24.90;;
6121;SDS011;3091;51.506;7.672;2023-05-10T00:21:08;26.90;;;25.20;;
6121;SDS011;3091;51.506;7.672;2023-05-10T00:23:34;27.10;;;25.40;;
6121;SDS011;3091;51.506;7.672;2023-05-10T00:26:00;26.80;;;25.10;;
6121;SDS011;3091;51.506;7.672;2023-05-10T00:28:27;27.90;;;26.10;;
6121;SDS011;3091;51.506;7.672;2023-05-10T00:30:53;29.93;;;27.93;;
6121;SDS011;3091;51.506;7.672;2023-05-10T00:33:20;31.40;;;29.40;;
6121;SDS011;3091;51.506;7.672;2023-05-10T00:35:46;28.73;;;26.93;;
6121;SDS011;3091;51.506;7.672;2023-05-10T00:38:12;25.87;;;24.17;;
6121;SDS011;3091;51.506;7.672;2023-05-10T00:40:38;25.20;;;23.60;;
6121;SDS011;3091;51.506;7.672;2023-05-10T00:43:04;26.70;;;25.10;;
6121;SDS011;3091;51.506;7.672;2023-05-10T00:45:31;25.50;;;23.90;;
6121;SDS011;3091;51.506;7.672;2023-05-10T00:47:58;25.70;;;24.10;;
6121;SDS011;3091;51.506;7.672;2023-05-10T00:50:25;25.83;;;24.20;;
6121;SDS011;3091;51.506;7.672;2023-05-10T00:52:51;25.90;;;24.37;;
6121;SDS011;3091;51.506;7.672;2023-05-10T00:55:17;25.80;;;24.20;;
6121;SDS011;3091;51.506;7.672;2023-05-10T00:57:44;25.57;;;23.87;;
6121;SDS011;3091;51.506;7.672;2023-05-10T01:00:10;24.93;;;23.43;;
6121;SDS011;3091;51.506;7.672;2023-05-10T01:02:37;24.23;;;22.73;;
6121;SDS011;3091;51.506;7.672;2023-05-10T01:05:03;24.27;;;22.77;;
6121;SDS011;3091;51.506;7.672;2023-05-10T01:07:29;23.63;;;22.23;;
6121;SDS011;3091;51.506;7.672;2023-05-10T01:09:55;23.60;;;22.10;;
6121;SDS011;3091;51.506;7.672;2023-05-10T01:12:21;26.90;;;25.20;;
6121;SDS011;3091;51.506;7.672;2023-05-10T01:14:47;25.30;;;23.70;;
6121;SDS011;3091;51.506;7.672;2023-05-10T01:17:14;24.10;;;22.60;;
6121;SDS011;3091;51.506;7.672;2023-05-10T01:19:41;23.93;;;22.43;;
6121;SDS011;3091;51.506;7.672;2023-05-10T01:22:30;25.03;;;23.43;;
6121;SDS011;3091;51.506;7.672;2023-05-10T01:32:57;24.20;;;22.70;;
6121;SDS011;3091;51.506;7.672;2023-05-10T01:37:52;23.70;;;22.30;;
6121;SDS011;3091;51.506;7.672;2023-05-10T01:40:58;23.70;;;22.30;;
6121;SDS011;3091;51.506;7.672;2023-05-10T01:43:22;24.13;;;22.63;;
6121;SDS011;3091;51.506;7.672;2023-05-10T01:45:59;23.50;;;22.10;;
6121;SDS011;3091;51.506;7.672;2023-05-10T01:48:29;24.57;;;23.00;;
6121;SDS011;3091;51.506;7.672;2023-05-10T01:50:55;23.53;;;22.13;;
6121;SDS011;3091;51.506;7.672;2023-05-10T01:53:24;24.20;;;22.57;;
6121;SDS011;3091;51.506;7.672;2023-05-10T01:55:52;22.60;;;21.20;;
6121;SDS011;3091;51.506;7.672;2023-05-10T01:58:22;24.60;;;23.10;;
6121;SDS011;3091;51.506;7.672;2023-05-10T02:00:50;24.30;;;22.80;;
6121;SDS011;3091;51.506;7.672;2023-05-10T02:03:17;23.70;;;22.20;;
6121;SDS011;3091;51.506;7.672;2023-05-10T02:05:44;23.80;;;22.30;;
6121;SDS011;3091;51.506;7.672;2023-05-10T02:08:12;23.80;;;22.30;;
6121;SDS011;3091;51.506;7.672;2023-05-10T02:10:39;24.10;;;22.50;;
6121;SDS011;3091;51.506;7.672;2023-05-10T02:13:05;24.00;;;22.50;;
6121;SDS011;3091;51.506;7.672;2023-05-10T02:15:32;23.90;;;22.50;;
6121;SDS011;3091;51.506;7.672;2023-05-10T02:17:59;23.03;;;21.63;;
6121;SDS011;3091;51.506;7.672;2023-05-10T02:20:26;24.10;;;22.60;;
6121;SDS011;3091;51.506;7.672;2023-05-10T02:22:54;23.47;;;22.07;;
6121;SDS011;3091;51.506;7.672;2023-05-10T02:25:20;24.40;;;22.90;;
6121;SDS011;3091;51.506;7.672;2023-05-10T02:27:47;24.00;;;22.60;;
6121;SDS011;3091;51.506;7.672;2023-05-10T02:30:16;25.63;;;24.10;;
6121;SDS011;3091;51.506;7.672;2023-05-10T02:32:42;24.20;;;22.80;;
6121;SDS011;3091;51.506;7.672;2023-05-10T02:35:08;25.13;;;23.27;;
6121;SDS011;3091;51.506;7.672;2023-05-10T02:37:35;24.60;;;23.20;;
6121;SDS011;3091;51.506;7.672;2023-05-10T02:40:02;25.27;;;23.40;;
6121;SDS011;3091;51.506;7.672;2023-05-10T02:42:29;25.07;;;23.47;;
6121;SDS011;3091;51.506;7.672;2023-05-10T02:44:59;24.30;;;22.83;;
6121;SDS011;3091;51.506;7.672;2023-05-10T02:47:26;25.80;;;24.00;;
6121;SDS011;3091;51.506;7.672;2023-05-10T02:49:52;28.00;;;26.17;;
6121;SDS011;3091;51.506;7.672;2023-05-10T02:52:19;28.27;;;26.47;;
6121;SDS011;3091;51.506;7.672;2023-05-10T02:54:49;29.40;;;27.50;;
6121;SDS011;3091;51.506;7.672;2023-05-10T02:57:16;30.77;;;28.87;;
6121;SDS011;3091;51.506;7.672;2023-05-10T02:59:44;31.90;;;29.90;;
6121;SDS011;3091;51.506;7.672;2023-05-10T03:02:10;29.90;;;28.10;;
6121;SDS011;3091;51.506;7.672;2023-05-10T03:04:37;31.30;;;29.40;;
6121;SDS011;3091;51.506;7.672;2023-05-10T03:07:03;31.80;;;29.90;;
6121;SDS011;3091;51.506;7.672;2023-05-10T03:09:29;32.00;;;29.93;;
6121;SDS011;3091;51.506;7.672;2023-05-10T03:12:11;32.10;;;30.10;;
6121;SDS011;3091;51.506;7.672;2023-05-10T03:14:53;31.97;;;30.07;;
6121;SDS011;3091;51.506;7.672;2023-05-10T03:17:23;32.87;;;30.80;;
6121;SDS011;3091;51.506;7.672;2023-05-10T03:19:53;31.33;;;29.43;;
6121;SDS011;3091;51.506;7.672;2023-05-10T03:22:21;31.93;;;29.97;;
6121;SDS011;3091;51.506;7.672;2023-05-10T03:24:49;32.80;;;30.80;;
6121;SDS011;3091;51.506;7.672;2023-05-10T03:27:15;33.40;;;31.30;;
6121;SDS011;3091;51.506;7.672;2023-05-10T03:29:42;32.60;;;30.60;;
6121;SDS011;3091;51.506;7.672;2023-05-10T03:32:13;31.50;;;29.50;;
6121;SDS011;3091;51.506;7.672;2023-05-10T03:34:43;30.03;;;28.13;;
6121;SDS011;3091;51.506;7.672;2023-05-10T03:37:09;31.10;;;29.10;;
6121;SDS011;3091;51.506;7.672;2023-05-10T03:39:35;30.40;;;28.43;;
6121;SDS011;3091;51.506;7.672;2023-05-10T03:42:01;29.90;;;27.90;;
6121;SDS011;3091;51.506;7.672;2023-05-10T03:44:29;31.27;;;29.27;;
6121;SDS011;3091;51.506;7.672;2023-05-10T03:46:55;30.70;;;28.70;;
6121;SDS011;3091;51.506;7.672;2023-05-10T03:49:22;30.27;;;28.30;;
6121;SDS011;3091;51.506;7.672;2023-05-10T03:51:47;30.53;;;28.53;;
6121;SDS011;3091;51.506;7.672;2023-05-10T03:54:13;29.87;;;27.97;;
6121;SDS011;3091;51.506;7.672;2023-05-10T03:56:47;29.47;;;27.57;;
6121;SDS011;3091;51.506;7.672;2023-05-10T03:59:13;28.67;;;26.77;;
6121;SDS011;3091;51.506;7.672;2023-05-10T04:01:39;29.03;;;27.13;;
6121;SDS011;3091;51.506;7.672;2023-05-10T04:04:05;28.87;;;27.03;;
6121;SDS011;3091;51.506;7.672;2023-05-10T04:06:31;28.37;;;26.57;;
6121;SDS011;3091;51.506;7.672;2023-05-10T04:08:57;28.03;;;26.23;;
6121;SDS011;3091;51.506;7.672;2023-05-10T04:11:29;28.37;;;26.67;;
6121;SDS011;3091;51.506;7.672;2023-05-10T04:13:56;27.40;;;25.70;;
6121;SDS011;3091;51.506;7.672;2023-05-10T04:16:22;28.30;;;26.57;;
6121;SDS011;3091;51.506;7.672;2023-05-10T04:18:48;27.70;;;26.00;;
6121;SDS011;3091;51.506;7.672;2023-05-10T04:21:14;26.90;;;25.20;;
6121;SDS011;3091;51.506;7.672;2023-05-10T04:23:40;27.50;;;25.80;;
6121;SDS011;3091;51.506;7.672;2023-05-10T04:26:06;26.77;;;25.07;;
6121;SDS011;3091;51.506;7.672;2023-05-10T04:28:32;28.63;;;26.93;;
6121;SDS011;3091;51.506;7.672;2023-05-10T04:31:05;28.60;;;26.80;;
6121;SDS011;3091;51.506;7.672;2023-05-10T04:33:31;28.47;;;26.67;;
6121;SDS011;3091;51.506;7.672;2023-05-10T04:35:57;29.10;;;27.30;;
6121;SDS011;3091;51.506;7.672;2023-05-10T04:38:23;28.57;;;26.77;;
6121;SDS011;3091;51.506;7.672;2023-05-10T04:40:50;28.90;;;27.10;;
6121;SDS011;3091;51.506;7.672;2023-05-10T04:43:16;30.43;;;28.43;;
6121;SDS011;3091;51.506;7.672;2023-05-10T04:45:42;29.40;;;27.50;;
6121;SDS011;3091;51.506;7.672;2023-05-10T04:48:08;30.00;;;28.10;;
6121;SDS011;3091;51.506;7.672;2023-05-10T04:50:34;30.50;;;28.50;;
6121;SDS011;3091;51.506;7.672;2023-05-10T04:53:00;31.93;;;29.93;;
6121;SDS011;3091;51.506;7.672;2023-05-10T04:55:26;31.70;;;29.70;;
6121;SDS011;3091;51.506;7.672;2023-05-10T04:57:52;34.77;;;32.07;;
6121;SDS011;3091;51.506;7.672;2023-05-10T05:00:21;33.93;;;31.63;;
6121;SDS011;3091;51.506;7.672;2023-05-10T05:02:47;33.90;;;31.70;;
6121;SDS011;3091;51.506;7.672;2023-05-10T05:05:13;34.60;;;32.37;;
6121;SDS011;3091;51.506;7.672;2023-05-10T05:07:39;31.47;;;29.37;;
6121;SDS011;3091;51.506;7.672;2023-05-10T05:10:06;33.00;;;30.90;;
6121;SDS011;3091;51.506;7.672;2023-05-10T05:12:32;33.13;;;30.93;;
6121;SDS011;3091;51.506;7.672;2023-05-10T05:14:58;32.70;;;30.60;;
6121;SDS011;3091;51.506;7.672;2023-05-10T05:17:24;32.70;;;30.70;;
6121;SDS011;3091;51.506;7.672;2023-05-10T05:19:53;33.63;;;31.53;;
6121;SDS011;3091;51.506;7.672;2023-05-10T05:22:19;51.13;;;47.83;;
6121;SDS011;3091;51.506;7.672;2023-05-10T05:24:52;50.37;;;47.07;;
6121;SDS011;3091;51.506;7.672;2023-05-10T05:27:18;53.30;;;49.80;;
6121;SDS011;3091;51.506;7.672;2023-05-10T05:29:48;51.40;;;48.10;;
6121;SDS011;3091;51.506;7.672;2023-05-10T05:32:14;51.80;;;48.60;;
6121;SDS011;3091;51.506;7.672;2023-05-10T05:34:40;50.10;;;47.00;;
6121;SDS011;3091;51.506;7.672;2023-05-10T05:37:06;50.23;;;47.13;;
6121;SDS011;3091;51.506;7.672;2023-05-10T05:39:32;50.93;;;47.63;;
6121;SDS011;3091;51.506;7.672;2023-05-10T05:41:58;50.90;;;47.00;;
6121;SDS011;3091;51.506;7.672;2023-05-10T05:44:24;48.47;;;44.63;;
6121;SDS011;3091;51.506;7.672;2023-05-10T05:46:50;47.67;;;44.47;;
6121;SDS011;3091;51.506;7.672;2023-05-10T05:49:16;47.77;;;44.67;;
6121;SDS011;3091;51.506;7.672;2023-05-10T05:51:42;50.63;;;47.37;;
6121;SDS011;3091;51.506;7.672;2023-05-10T05:54:09;49.87;;;46.57;;
6121;SDS011;3091;51.506;7.672;2023-05-10T05:56:35;52.83;;;49.53;;
6121;SDS011;3091;51.506;7.672;2023-05-10T05:59:02;64.50;;;60.80;;
6121;SDS011;3091;51.506;7.672;2023-05-10T06:01:28;55.43;;;52.13;;
6121;SDS011;3091;51.506;7.672;2023-05-10T06:03:54;53.10;;;49.47;;
6121;SDS011;3091;51.506;7.672;2023-05-10T06:06:20;53.67;;;50.37;;
6121;SDS011;3091;51.506;7.672;2023-05-10T06:08:46;59.03;;;55.30;;
6121;SDS011;3091;51.506;7.672;2023-05-10T06:11:12;57.97;;;54.30;;
6121;SDS011;3091;51.506;7.672;2023-05-10T06:13:38;54.93;;;51.63;;
6121;SDS011;3091;51.506;7.672;2023-05-10T06:16:04;57.33;;;53.93;;
6121;SDS011;3091;51.506;7.672;2023-05-10T06:18:30;54.53;;;51.13;;
6121;SDS011;3091;51.506;7.672;2023-05-10T06:20:56;58.10;;;54.13;;
6121;SDS011;3091;51.506;7.672;2023-05-10T06:23:22;64.13;;;60.43;;
6121;SDS011;3091;51.506;7.672;2023-05-10T06:25:50;58.43;;;54.83;;
6121;SDS011;3091;51.506;7.672;2023-05-10T06:28:19;55.40;;;52.10;;
6121;SDS011;3091;51.506;7.672;2023-05-10T06:30:45;47.30;;;44.00;;
6121;SDS011;3091;51.506;7.672;2023-05-10T06:33:18;43.97;;;41.23;;
6121;SDS011;3091;51.506;7.672;2023-05-10T06:35:44;39.63;;;37.00;;
6121;SDS011;3091;51.506;7.672;2023-05-10T06:38:10;35.27;;;32.97;;
6121;SDS011;3091;51.506;7.672;2023-05-10T06:40:36;30.17;;;27.93;;
6121;SDS011;3091;51.506;7.672;2023-05-10T06:43:02;23.53;;;22.33;;
6121;SDS011;3091;51.506;7.672;2023-05-10T06:45:28;22.90;;;21.53;;
6121;SDS011;3091;51.506;7.672;2023-05-10T06:47:54;22.63;;;21.13;;
6121;SDS011;3091;51.506;7.672;2023-05-10T06:50:21;21.77;;;20.37;;
6121;SDS011;3091;51.506;7.672;2023-05-10T06:52:47;24.40;;;22.77;;
6121;SDS011;3091;51.506;7.672;2023-05-10T06:55:13;22.70;;;21.00;;
6121;SDS011;3091;51.506;7.672;2023-05-10T06:57:40;18.57;;;17.53;;
6121;SDS011;3091;51.506;7.672;2023-05-10T07:00:06;22.47;;;21.17;;
6121;SDS011;3091;51.506;7.672;2023-05-10T07:02:34;31.33;;;29.23;;
6121;SDS011;3091;51.506;7.672;2023-05-10T07:05:00;43.40;;;40.60;;
6121;SDS011;3091;51.506;7.672;2023-05-10T07:07:29;39.03;;;36.63;;
6121;SDS011;3091;51.506;7.672;2023-05-10T07:09:55;39.77;;;37.10;;
6121;SDS011;3091;51.506;7.672;2023-05-10T07:12:22;35.97;;;33.10;;
6121;SDS011;3091;51.506;7.672;2023-05-10T07:14:48;36.13;;;33.93;;
6121;SDS011;3091;51.506;7.672;2023-05-10T07:17:14;43.93;;;40.50;;
6121;SDS011;3091;51.506;7.672;2023-05-10T07:19:40;39.73;;;36.43;;
6121;SDS011;3091;51.506;7.672;2023-05-10T07:22:06;34.43;;;32.23;;
6121;SDS011;3091;51.506;7.672;2023-05-10T07:24:33;28.00;;;26.20;;
6121;SDS011;3091;51.506;7.672;2023-05-10T07:26:59;26.00;;;24.50;;
6121;SDS011;3091;51.506;7.672;2023-05-10T07:29:25;25.53;;;23.67;;
6121;SDS011;3091;51.506;7.672;2023-05-10T07:31:51;21.00;;;19.40;;
6121;SDS011;3091;51.506;7.672;2023-05-10T07:34:22;18.13;;;17.23;;
6121;SDS011;3091;51.506;7.672;2023-05-10T07:36:48;18.47;;;17.60;;
6121;SDS011;3091;51.506;7.672;2023-05-10T07:39:16;20.17;;;19.07;;
6121;SDS011;3091;51.506;7.672;2023-05-10T07:41:42;17.70;;;17.00;;
6121;SDS011;3091;51.506;7.672;2023-05-10T07:44:09;18.70;;;17.60;;
6121;SDS011;3091;51.506;7.672;2023-05-10T07:46:37;18.63;;;17.83;;
6121;SDS011;3091;51.506;7.672;2023-05-10T07:49:06;14.90;;;14.30;;
6121;SDS011;3091;51.506;7.672;2023-05-10T07:51:32;14.47;;;13.77;;
6121;SDS011;3091;51.506;7.672;2023-05-10T07:53:58;14.80;;;14.20;;
6121;SDS011;3091;51.506;7.672;2023-05-10T07:56:25;17.00;;;16.20;;
6121;SDS011;3091;51.506;7.672;2023-05-10T07:58:54;16.30;;;15.57;;
6121;SDS011;3091;51.506;7.672;2023-05-10T08:01:21;17.37;;;16.57;;
6121;SDS011;3091;51.506;7.672;2023-05-10T08:03:47;18.37;;;17.47;;
6121;SDS011;3091;51.506;7.672;2023-05-10T08:06:14;14.80;;;14.20;;
6121;SDS011;3091;51.506;7.672;2023-05-10T08:08:40;13.73;;;13.23;;
6121;SDS011;3091;51.506;7.672;2023-05-10T08:11:07;14.23;;;13.53;;
6121;SDS011;3091;51.506;7.672;2023-05-10T08:13:33;13.13;;;12.50;;
6121;SDS011;3091;51.506;7.672;2023-05-10T08:15:59;12.83;;;12.37;;
6121;SDS011;3091;51.506;7.672;2023-05-10T08:18:25;12.03;;;11.63;;
6121;SDS011;3091;51.506;7.672;2023-05-10T08:20:51;11.97;;;11.57;;
6121;SDS011;3091;51.506;7.672;2023-05-10T08:23:17;10.93;;;10.63;;
6121;SDS011;3091;51.506;7.672;2023-05-10T08:25:43;12.60;;;12.10;;
6121;SDS011;3091;51.506;7.672;2023-05-10T08:28:09;16.37;;;15.10;;
6121;SDS011;3091;51.506;7.672;2023-05-10T08:30:35;11.33;;;10.93;;
6121;SDS011;3091;51.506;7.672;2023-05-10T08:33:01;10.43;;;10.13;;
6121;SDS011;3091;51.506;7.672;2023-05-10T08:35:27;11.33;;;10.97;;
6121;SDS011;3091;51.506;7.672;2023-05-10T08:37:53;14.57;;;13.93;;
6121;SDS011;3091;51.506;7.672;2023-05-10T08:40:22;12.73;;;12.23;;
6121;SDS011;3091;51.506;7.672;2023-05-10T08:42:51;12.27;;;11.80;;
6121;SDS011;3091;51.506;7.672;2023-05-10T08:45:21;16.00;;;15.30;;
6121;SDS011;3091;51.506;7.672;2023-05-10T08:47:48;12.23;;;11.83;;
6121;SDS011;3091;51.506;7.672;2023-05-10T08:50:16;16.47;;;15.83;;
6121;SDS011;3091;51.506;7.672;2023-05-10T08:52:43;13.27;;;12.77;;
6121;SDS011;3091;51.506;7.672;2023-05-10T08:55:11;13.83;;;12.90;;
6121;SDS011;3091;51.506;7.672;2023-05-10T08:57:37;12.77;;;12.17;;
6121;SDS011;3091;51.506;7.672;2023-05-10T09:00:03;14.80;;;14.10;;
6121;SDS011;3091;51.506;7.672;2023-05-10T09:02:29;11.10;;;10.80;;
6121;SDS011;3091;51.506;7.672;2023-05-10T09:04:55;13.10;;;12.60;;
6121;SDS011;3091;51.506;7.672;2023-05-10T09:07:21;12.10;;;11.60;;
6121;SDS011;3091;51.506;7.672;2023-05-10T09:09:47;12.60;;;12.10;;
6121;SDS011;3091;51.506;7.672;2023-05-10T09:12:14;10.70;;;10.30;;
6121;SDS011;3091;51.506;7.672;2023-05-10T09:14:41;12.03;;;11.60;;
6121;SDS011;3091;51.506;7.672;2023-05-10T09:17:08;11.80;;;11.40;;
6121;SDS011;3091;51.506;7.672;2023-05-10T09:19:35;20.60;;;19.70;;
6121;SDS011;3091;51.506;7.672;2023-05-10T09:22:01;32.00;;;30.30;;
6121;SDS011;3091;51.506;7.672;2023-05-10T09:24:28;35.67;;;33.57;;
6121;SDS011;3091;51.506;7.672;2023-05-10T09:26:54;42.33;;;39.73;;
6121;SDS011;3091;51.506;7.672;2023-05-10T09:29:22;39.27;;;37.00;;
6121;SDS011;3091;51.506;7.672;2023-05-10T09:31:49;42.43;;;39.90;;
6121;SDS011;3091;51.506;7.672;2023-05-10T09:34:30;42.10;;;39.60;;
6121;SDS011;3091;51.506;7.672;2023-05-10T09:36:57;39.40;;;37.20;;
6121;SDS011;3091;51.506;7.672;2023-05-10T09:41:58;17.67;;;16.97;;
6121;SDS011;3091;51.506;7.672;2023-05-10T09:44:26;15.23;;;14.63;;
6121;SDS011;3091;51.506;7.672;2023-05-10T09:46:52;16.03;;;15.23;;
6121;SDS011;3091;51.506;7.672;2023-05-10T09:49:20;15.80;;;15.10;;
6121;SDS011;3091;51.506;7.672;2023-05-10T09:51:46;16.47;;;15.67;;
6121;SDS011;3091;51.506;7.672;2023-05-10T09:54:15;14.17;;;13.67;;
6121;SDS011;3091;51.506;7.672;2023-05-10T09:56:41;14.53;;;13.93;;
6121;SDS011;3091;51.506;7.672;2023-05-10T09:59:09;15.10;;;14.50;;
6121;SDS011;3091;51.506;7.672;2023-05-10T10:01:35;14.97;;;14.43;;
6121;SDS011;3091;51.506;7.672;2023-05-10T10:04:05;14.37;;;13.67;;
6121;SDS011;3091;51.506;7.672;2023-05-10T10:06:38;14.20;;;13.47;;
6121;SDS011;3091;51.506;7.672;2023-05-10T10:09:05;11.30;;;10.90;;
6121;SDS011;3091;51.506;7.672;2023-05-10T10:11:31;10.30;;;10.00;;
6121;SDS011;3091;51.506;7.672;2023-05-10T10:13:57;11.53;;;11.13;;
6121;SDS011;3091;51.506;7.672;2023-05-10T10:16:24;11.90;;;11.40;;
6121;SDS011;3091;51.506;7.672;2023-05-10T10:18:50;12.27;;;11.87;;
6121;SDS011;3091;51.506;7.672;2023-05-10T10:21:16;14.57;;;13.97;;
6121;SDS011;3091;51.506;7.672;2023-05-10T10:23:42;13.10;;;12.60;;
6121;SDS011;3091;51.506;7.672;2023-05-10T10:26:08;12.73;;;12.30;;
6121;SDS011;3091;51.506;7.672;2023-05-10T10:28:39;12.10;;;11.70;;
6121;SDS011;3091;51.506;7.672;2023-05-10T10:34:11;11.13;;;10.73;;
6121;SDS011;3091;51.506;7.672;2023-05-10T10:36:44;11.00;;;10.70;;
6121;SDS011;3091;51.506;7.672;2023-05-10T10:39:10;11.77;;;11.37;;
6121;SDS011;3091;51.506;7.672;2023-05-10T10:41:40;11.50;;;11.10;;
6121;SDS011;3091;51.506;7.672;2023-05-10T10:44:33;13.27;;;12.77;;
6121;SDS011;3091;51.506;7.672;2023-05-10T10:47:00;12.60;;;12.10;;
6121;SDS011;3091;51.506;7.672;2023-05-10T10:49:27;12.40;;;12.00;;
6121;SDS011;3091;51.506;7.672;2023-05-10T10:54:38;13.17;;;12.67;;
6121;SDS011;3091;51.506;7.672;2023-05-10T10:57:11;12.87;;;12.30;;
6121;SDS011;3091;51.506;7.672;2023-05-10T10:59:41;15.33;;;14.63;;
6121;SDS011;3091;51.506;7.672;2023-05-10T11:02:44;11.80;;;11.40;;
6121;SDS011;3091;51.506;7.672;2023-05-10T11:07:55;11.90;;;11.00;;
6121;SDS011;3091;51.506;7.672;2023-05-10T11:10:21;11.30;;;10.90;;
6121;SDS011;3091;51.506;7.672;2023-05-10T11:13:07;11.80;;;11.40;;
6121;SDS011;3091;51.506;7.672;2023-05-10T11:15:37;12.67;;;12.17;;
6121;SDS011;3091;51.506;7.672;2023-05-10T11:18:19;12.67;;;12.27;;
6121;SDS011;3091;51.506;7.672;2023-05-10T11:20:52;13.23;;;12.80;;
6121;SDS011;3091;51.506;7.672;2023-05-10T11:23:18;12.43;;;12.00;;
6121;SDS011;3091;51.506;7.672;2023-05-10T11:25:46;14.40;;;13.80;;
6121;SDS011;3091;51.506;7.672;2023-05-10T11:28:12;14.23;;;13.53;;
6121;SDS011;3091;51.506;7.672;2023-05-10T11:30:38;14.40;;;13.77;;
6121;SDS011;3091;51.506;7.672;2023-05-10T11:33:05;14.17;;;13.60;;
6121;SDS011;3091;51.506;7.672;2023-05-10T11:35:36;12.60;;;12.10;;
6121;SDS011;3091;51.506;7.672;2023-05-10T11:38:04;13.97;;;13.37;;
6121;SDS011;3091;51.506;7.672;2023-05-10T11:40:30;13.50;;;12.90;;
6121;SDS011;3091;51.506;7.672;2023-05-10T11:42:56;14.83;;;14.10;;
6121;SDS011;3091;51.506;7.672;2023-05-10T11:45:25;13.27;;;12.67;;
6121;SDS011;3091;51.506;7.672;2023-05-10T11:47:53;12.90;;;12.40;;
6121;SDS011;3091;51.506;7.672;2023-05-10T11:50:19;14.17;;;13.47;;
6121;SDS011;3091;51.506;7.672;2023-05-10T11:52:49;11.00;;;10.70;;
6121;SDS011;3091;51.506;7.672;2023-05-10T11:55:16;10.90;;;10.60;;
6121;SDS011;3091;51.506;7.672;2023-05-10T11:57:44;11.63;;;11.23;;
6121;SDS011;3091;51.506;7.672;2023-05-10T12:00:11;11.47;;;11.07;;
6121;SDS011;3091;51.506;7.672;2023-05-10T12:02:37;10.40;;;10.10;;
6121;SDS011;3091;51.506;7.672;2023-05-10T12:05:04;14.90;;;14.10;;
6121;SDS011;3091;51.506;7.672;2023-05-10T12:07:30;11.40;;;11.00;;
6121;SDS011;3091;51.506;7.672;2023-05-10T12:10:09;12.60;;;12.17;;
6121;SDS011;3091;51.506;7.672;2023-05-10T12:12:42;12.97;;;12.53;;
6121;SDS011;3091;51.506;7.672;2023-05-10T12:15:12;12.77;;;11.80;;
6121;SDS011;3091;51.506;7.672;2023-05-10T12:17:43;12.00;;;11.30;;
6121;SDS011;3091;51.506;7.672;2023-05-10T12:20:20;12.03;;;11.43;;
6121;SDS011;3091;51.506;7.672;2023-05-10T12:22:53;10.70;;;10.20;;
6121;SDS011;3091;51.506;7.672;2023-05-10T12:25:22;11.00;;;10.53;;
6121;SDS011;3091;51.506;7.672;2023-05-10T12:27:51;11.60;;;11.20;;
6121;SDS011;3091;51.506;7.672;2023-05-10T12:30:27;12.20;;;11.80;;
6121;SDS011;3091;51.506;7.672;2023-05-10T12:32:53;10.50;;;10.20;;
6121;SDS011;3091;51.506;7.672;2023-05-10T12:35:19;10.27;;;9.97;;
6121;SDS011;3091;51.506;7.672;2023-05-10T12:37:47;12.33;;;11.77;;
6121;SDS011;3091;51.506;7.672;2023-05-10T12:40:13;11.07;;;10.67;;
6121;SDS011;3091;51.506;7.672;2023-05-10T12:42:39;12.63;;;12.13;;
6121;SDS011;3091;51.506;7.672;2023-05-10T12:45:06;13.67;;;13.10;;
6121;SDS011;3091;51.506;7.672;2023-05-10T12:47:33;13.10;;;12.60;;
6121;SDS011;3091;51.506;7.672;2023-05-10T12:50:01;12.90;;;12.40;;
6121;SDS011;3091;51.506;7.672;2023-05-10T12:52:28;13.13;;;12.53;;
6121;SDS011;3091;51.506;7.672;2023-05-10T12:54:54;13.53;;;13.03;;
6121;SDS011;3091;51.506;7.672;2023-05-10T12:57:20;12.23;;;11.80;;
6121;SDS011;3091;51.506;7.672;2023-05-10T12:59:46;12.47;;;12.00;;
6121;SDS011;3091;51.506;7.672;2023-05-10T13:02:12;11.77;;;11.37;;
6121;SDS011;3091;51.506;7.672;2023-05-10T13:04:39;12.83;;;12.33;;
6121;SDS011;3091;51.506;7.672;2023-05-10T13:07:08;12.10;;;11.70;;
6121;SDS011;3091;51.506;7.672;2023-05-10T13:09:34;13.73;;;13.23;;
6121;SDS011;3091;51.506;7.672;2023-05-10T13:12:01;10.80;;;10.40;;
6121;SDS011;3091;51.506;7.672;2023-05-10T13:14:27;11.07;;;10.67;;
6121;SDS011;3091;51.506;7.672;2023-05-10T13:16:53;11.27;;;10.77;;
6121;SDS011;3091;51.506;7.672;2023-05-10T13:19:19;11.97;;;11.47;;
6121;SDS011;3091;51.506;7.672;2023-05-10T13:21:45;13.00;;;12.50;;
6121;SDS011;3091;51.506;7.672;2023-05-10T13:24:11;13.20;;;12.57;;
6121;SDS011;3091;51.506;7.672;2023-05-10T13:26:40;11.10;;;10.70;;
6121;SDS011;3091;51.506;7.672;2023-05-10T13:29:06;12.80;;;12.20;;
6121;SDS011;3091;51.506;7.672;2023-05-10T13:31:35;10.60;;;10.30;;
6121;SDS011;3091;51.506;7.672;2023-05-10T13:34:01;13.30;;;12.50;;
6121;SDS011;3091;51.506;7.672;2023-05-10T13:36:28;11.20;;;10.80;;
6121;SDS011;3091;51.506;7.672;2023-05-10T13:38:54;10.10;;;9.80;;
6121;SDS011;3091;51.506;7.672;2023-05-10T13:41:20;11.00;;;10.70;;
6121;SDS011;3091;51.506;7.672;2023-05-10T13:43:46;12.50;;;12.10;;
6121;SDS011;3091;51.506;7.672;2023-05-10T13:46:13;12.30;;;11.70;;
6121;SDS011;3091;51.506;7.672;2023-05-10T13:48:39;11.80;;;11.40;;
6121;SDS011;3091;51.506;7.672;2023-05-10T13:51:06;11.40;;;11.00;;
6121;SDS011;3091;51.506;7.672;2023-05-10T13:53:32;10.80;;;10.40;;
6121;SDS011;3091;51.506;7.672;2023-05-10T13:55:58;9.60;;;9.30;;
6121;SDS011;3091;51.506;7.672;2023-05-10T13:58:24;12.10;;;11.70;;
6121;SDS011;3091;51.506;7.672;2023-05-10T14:00:50;12.90;;;12.20;;
6121;SDS011;3091;51.506;7.672;2023-05-10T14:03:16;11.90;;;11.50;;
6121;SDS011;3091;51.506;7.672;2023-05-10T14:05:42;11.60;;;11.20;;
6121;SDS011;3091;51.506;7.672;2023-05-10T14:08:09;12.10;;;11.70;;
6121;SDS011;3091;51.506;7.672;2023-05-10T14:10:38;11.90;;;11.50;;
6121;SDS011;3091;51.506;7.672;2023-05-10T14:13:04;12.20;;;11.80;;
6121;SDS011;3091;51.506;7.672;2023-05-10T14:15:31;12.20;;;11.80;;
6121;SDS011;3091;51.506;7.672;2023-05-10T14:17:57;10.80;;;10.30;;
6121;SDS011;3091;51.506;7.672;2023-05-10T14:20:23;10.70;;;10.30;;
6121;SDS011;3091;51.506;7.672;2023-05-10T14:22:49;10.13;;;9.83;;
6121;SDS011;3091;51.506;7.672;2023-05-10T14:25:15;11.97;;;11.47;;
6121;SDS011;3091;51.506;7.672;2023-05-10T14:27:43;10.90;;;10.50;;
6121;SDS011;3091;51.506;7.672;2023-05-10T14:30:09;9.57;;;9.27;;
6121;SDS011;3091;51.506;7.672;2023-05-10T14:32:36;10.40;;;10.10;;
6121;SDS011;3091;51.506;7.672;2023-05-10T14:35:02;12.77;;;12.27;;
6121;SDS011;3091;51.506;7.672;2023-05-10T14:37:28;11.73;;;11.30;;
6121;SDS011;3091;51.506;7.672;2023-05-10T14:39:54;12.33;;;11.93;;
6121;SDS011;3091;51.506;7.672;2023-05-10T14:42:20;11.90;;;11.50;;
6121;SDS011;3091;51.506;7.672;2023-05-10T14:44:46;15.13;;;14.43;;
6121;SDS011;3091;51.506;7.672;2023-05-10T14:47:12;12.50;;;12.10;;
6121;SDS011;3091;51.506;7.672;2023-05-10T14:49:39;9.90;;;9.60;;
6121;SDS011;3091;51.506;7.672;2023-05-10T14:52:05;11.07;;;10.57;;
6121;SDS011;3091;51.506;7.672;2023-05-10T14:54:31;8.60;;;8.40;;
6121;SDS011;3091;51.506;7.672;2023-05-10T14:56:58;9.90;;;9.60;;
6121;SDS011;3091;51.506;7.672;2023-05-10T14:59:25;10.57;;;10.17;;
6121;SDS011;3091;51.506;7.672;2023-05-10T15:01:51;11.77;;;11.37;;
6121;SDS011;3091;51.506;7.672;2023-05-10T15:04:17;9.80;;;9.50;;
6121;SDS011;3091;51.506;7.672;2023-05-10T15:06:43;10.03;;;9.73;;
6121;SDS011;3091;51.506;7.672;2023-05-10T15:09:10;9.80;;;9.50;;
6121;SDS011;3091;51.506;7.672;2023-05-10T15:11:36;10.77;;;10.37;;